CheckWX is a tool to help pilots better visualize weather data.  It is not intended as a substitute for an official pre-flight weather briefing.

07:30:37 UTC

KSBP TAF
San Luis County Regional Airport
San Luis Obispo, California, USA
KSBP 200526Z 2006/2106 VRB03KT P6SM OVC009 FM201200 VRB03KT 6SM BR OVC005 FM201600 VRB03KT P6SM BKN012 FM202100 21007KT P6SM SCT020 FM210100 20005KT P6SM BKN017

Jun-20@
06:00 UTC

Jun-20 @ 06:00 UTC

Jun-20@
12:00 UTC

Jun-20 @ 12:00 UTC

KSBP 200526Z 2006/2106 VRB03KT P6SM OVC009
Wind
  • Variable at 3 KTS
Cloud Levels
  • Overcast at 900' AGL

Jun-20@
12:00 UTC

Jun-20 @ 12:00 UTC

Jun-20@
16:00 UTC

Jun-20 @ 16:00 UTC

FM201200 VRB03KT 6SM BR OVC005

From

From Standard forecast or significant change

Wind
  • Variable at 3 KTS
Conditions
Mist
Cloud Levels
  • Overcast at 500' AGL

Jun-20@
16:00 UTC

Jun-20 @ 16:00 UTC

Jun-20@
21:00 UTC

Jun-20 @ 21:00 UTC

FM201600 VRB03KT P6SM BKN012

From

From Standard forecast or significant change

Wind
  • Variable at 3 KTS
Cloud Levels
  • Broken at 1,200' AGL

Jun-20@
21:00 UTC

Jun-20 @ 21:00 UTC

Jun-21@
01:00 UTC

Jun-21 @ 01:00 UTC

FM202100 21007KT P6SM SCT020

From

From Standard forecast or significant change

Wind
  • 210° at 7 KTS
Cloud Levels
  • Scattered at 2,000' AGL

Jun-21@
01:00 UTC

Jun-21 @ 01:00 UTC

Jun-21@
06:00 UTC

Jun-21 @ 06:00 UTC

FM210100 20005KT P6SM BKN017

From

From Standard forecast or significant change

Wind
  • 200° at 5 KTS
Cloud Levels
  • Broken at 1,700' AGL